Time;durP1;ratioP1;P1;durP2;ratioP2;P2;SDS_P1;SDS_P2;PMS_P1;PMS_P2;Temp;Humidity;BMP_temperature;BMP_pressure;BME280_temperature;BME280_humidity;BME280_pressure;Samples;Min_cycle;Max_cycle;Signal;HPM_P1;HPM_P2
2021/05/08 00:02:21;;;;;;;;;;;;;;;3.25;77.52;96117.00;3603601;39;20305;-53
2021/05/08 00:04:49;;;;;;;;;;;;;;;3.16;78.64;96118.22;3592803;39;20220;-52
2021/05/08 00:07:16;;;;;;;;;;;;;;;3.11;78.89;96118.81;3599482;39;19943;-52
2021/05/08 00:09:44;;;;;;;;;;;;;;;3.06;79.95;96122.03;3595113;39;20383;-53
2021/05/08 00:12:10;;;;;;;;;;;;;;;3.13;79.41;96108.22;3608947;39;20016;-54
2021/05/08 00:14:38;;;;;;;;;;;;;;;3.12;79.53;96133.47;3597168;39;19947;-53
2021/05/08 00:17:06;;;;;;;;;;;;;;;3.12;79.40;96135.28;3600395;39;19951;-54
2021/05/08 00:19:33;;;;;;;;;;;;;;;3.13;77.83;96140.28;3609762;39;20195;-53
2021/05/08 00:22:01;;;;;;;;;;;;;;;3.17;77.60;96143.28;3585949;39;19942;-55
2021/05/08 00:24:28;;;;;;;;;;;;;;;3.20;77.83;96145.47;3598495;39;19950;-53
2021/05/08 00:26:55;;;;;;;;;;;;;;;3.22;78.53;96146.88;3593630;39;19944;-52
2021/05/08 00:29:22;;;;;;;;;;;;;;;3.26;78.22;96143.88;3588230;39;19941;-53
2021/05/08 00:31:49;;;;;;;;;;;;;;;3.29;77.94;96141.66;3608043;39;19942;-52
2021/05/08 00:34:16;;;;;;;;;;;;;;;3.31;77.95;96142.25;3606192;39;19945;-53
2021/05/08 00:36:43;;;;;;;;;;;;;;;3.31;77.63;96155.28;3604522;39;20204;-52
2021/05/08 00:39:10;;;;;;;;;;;;;;;3.48;69.19;96144.44;3583236;39;19940;-52
2021/05/08 00:41:37;;;;;;;;;;;;;;;3.57;74.00;96153.63;3589597;39;20369;-52
2021/05/08 00:44:05;;;;;;;;;;;;;;;3.60;74.26;96161.06;3591127;39;19947;-53
2021/05/08 00:46:33;;;;;;;;;;;;;;;3.64;75.75;96148.41;3603024;39;20049;-52
2021/05/08 00:49:01;;;;;;;;;;;;;;;3.58;75.81;96155.25;3602907;39;19949;-53
2021/05/08 00:51:28;;;;;;;;;;;;;;;3.58;75.24;96152.63;3604106;39;19936;-52
2021/05/08 00:53:56;;;;;;;;;;;;;;;3.61;74.00;96147.00;3604493;39;20506;-54
2021/05/08 00:56:24;;;;;;;;;;;;;;;3.62;75.59;96150.41;3607941;39;19961;-53
2021/05/08 00:58:51;;;;;;;;;;;;;;;3.64;76.00;96151.78;3602920;39;19949;-52
2021/05/08 01:01:19;;;;;;;;;;;;;;;3.63;76.33;96149.41;3602190;39;22046;-54
2021/05/08 01:03:47;;;;;;;;;;;;;;;3.58;75.89;96151.81;3590549;39;20328;-53
2021/05/08 01:06:16;;;;;;;;;;;;;;;3.59;75.96;96151.63;3590312;39;20432;-52
2021/05/08 01:08:44;;;;;;;;;;;;;;;3.60;76.11;96149.81;3603559;39;19944;-55
2021/05/08 01:11:12;;;;;;;;;;;;;;;3.59;75.03;96151.63;3597324;39;20079;-53
2021/05/08 01:13:39;;;;;;;;;;;;;;;3.64;75.81;96151.00;3606586;39;19947;-53
2021/05/08 01:16:07;;;;;;;;;;;;;;;3.60;75.68;96155.84;3600252;39;19949;-53
2021/05/08 01:18:34;;;;;;;;;;;;;;;3.58;75.81;96147.41;3603831;39;20288;-53
2021/05/08 01:21:02;;;;;;;;;;;;;;;3.59;75.78;96150.81;3601073;39;19950;-54
2021/05/08 01:23:29;;;;;;;;;;;;;;;3.57;75.97;96151.03;3595560;39;20296;-52
2021/05/08 01:25:58;;;;;;;;;;;;;;;3.50;76.93;96153.66;3595912;39;19963;-53
2021/05/08 01:28:28;;;;;;;;;;;;;;;3.36;77.22;96150.28;3585222;39;19948;-54
2021/05/08 01:30:55;;;;;;;;;;;;;;;3.45;77.39;96170.91;3603653;39;20647;-53
2021/05/08 01:33:22;;;;;;;;;;;;;;;3.43;77.42;96178.94;3602405;39;19948;-54
2021/05/08 01:35:49;;;;;;;;;;;;;;;3.41;77.42;96178.34;3603244;39;19954;-53
2021/05/08 01:38:17;;;;;;;;;;;;;;;3.35;77.71;96174.75;3602967;39;19951;-54
2021/05/08 01:40:45;;;;;;;;;;;;;;;3.35;77.53;96169.53;3596897;39;19945;-53
2021/05/08 01:43:25;;;;;;;;;;;;;;;3.38;76.86;96171.72;3609021;39;19939;-55
2021/05/08 01:45:53;;;;;;;;;;;;;;;3.36;77.24;96165.09;3594132;39;19935;-52
2021/05/08 01:48:20;;;;;;;;;;;;;;;3.31;77.17;96176.16;3579518;39;19943;-54
2021/05/08 01:50:48;;;;;;;;;;;;;;;3.27;76.83;96177.53;3595527;39;20199;-52
2021/05/08 01:53:15;;;;;;;;;;;;;;;3.25;76.56;96176.16;3599589;39;19948;-54
2021/05/08 01:55:45;;;;;;;;;;;;;;;3.20;76.33;96176.75;3597848;39;19946;-53
2021/05/08 01:58:19;;;;;;;;;;;;;;;3.12;78.59;96182.19;3606919;39;19936;-54
2021/05/08 02:00:51;;;;;;;;;;;;;;;3.06;78.24;96173.38;3595191;39;19943;-52
2021/05/08 02:03:18;;;;;;;;;;;;;;;3.04;77.81;96173.56;3601585;39;19950;-54
2021/05/08 02:05:47;;;;;;;;;;;;;;;2.97;78.53;96180.59;3601603;39;19967;-53
2021/05/08 02:08:37;;;;;;;;;;;;;;;2.92;78.27;96186.41;3607030;39;19944;-53
2021/05/08 02:11:08;;;;;;;;;;;;;;;2.92;77.90;96177.78;3592608;39;19946;-53
2021/05/08 02:13:39;;;;;;;;;;;;;;;2.89;78.44;96186.00;3609546;39;19981;-54
2021/05/08 02:16:08;;;;;;;;;;;;;;;2.86;78.40;96186.41;3583108;39;20201;-54
2021/05/08 02:18:35;;;;;;;;;;;;;;;2.84;78.35;96188.41;3605929;39;19939;-54
2021/05/08 02:21:02;;;;;;;;;;;;;;;2.82;78.08;96185.19;3594852;39;19941;-53
2021/05/08 02:23:29;;;;;;;;;;;;;;;2.77;78.11;96189.19;3592190;39;19935;-53
2021/05/08 02:25:58;;;;;;;;;;;;;;;2.70;78.94;96180.56;3583764;39;20259;-53
2021/05/08 02:28:25;;;;;;;;;;;;;;;2.71;79.19;96199.59;3600150;39;20514;-55
2021/05/08 02:30:53;;;;;;;;;;;;;;;2.67;78.72;96199.19;3597002;39;20215;-53
2021/05/08 02:33:29;;;;;;;;;;;;;;;2.71;78.60;96200.41;3599875;39;19942;-53
2021/05/08 02:35:56;;;;;;;;;;;;;;;2.70;78.32;96196.19;3597181;39;20779;-54
2021/05/08 02:38:23;;;;;;;;;;;;;;;2.73;78.13;96208.84;3599870;39;19948;-55
2021/05/08 02:40:51;;;;;;;;;;;;;;;2.74;78.27;96214.84;3604731;39;20297;-54
2021/05/08 02:43:19;;;;;;;;;;;;;;;2.74;78.71;96220.88;3599039;39;19942;-53
2021/05/08 02:45:53;;;;;;;;;;;;;;;2.82;78.34;96216.44;3604628;39;19943;-53
2021/05/08 02:48:20;;;;;;;;;;;;;;;2.88;78.31;96220.88;3603022;39;19954;-54
2021/05/08 02:50:53;;;;;;;;;;;;;;;2.94;77.82;96230.50;3607027;39;20311;-53
2021/05/08 02:53:21;;;;;;;;;;;;;;;2.99;77.87;96230.72;3595988;39;19935;-53
2021/05/08 02:55:49;;;;;;;;;;;;;;;3.03;77.84;96236.31;3612673;39;19939;-52
2021/05/08 02:58:19;;;;;;;;;;;;;;;3.06;77.16;96222.91;3588569;39;19947;-54
2021/05/08 03:00:49;;;;;;;;;;;;;;;3.07;76.34;96233.09;3608403;39;19932;-54
2021/05/08 03:03:17;;;;;;;;;;;;;;;3.10;75.24;96238.94;3602171;39;19973;-53
2021/05/08 03:05:47;;;;;;;;;;;;;;;3.05;75.22;96242.94;3600523;39;19952;-53
2021/05/08 03:08:19;;;;;;;;;;;;;;;3.11;75.54;96249.16;3603965;39;19939;-53
2021/05/08 03:10:48;;;;;;;;;;;;;;;3.10;75.61;96251.97;3582418;39;20306;-53
2021/05/08 03:13:18;;;;;;;;;;;;;;;3.13;74.74;96251.56;3604357;39;20473;-53
2021/05/08 03:15:45;;;;;;;;;;;;;;;3.09;73.89;96243.31;3588823;39;20293;-52
2021/05/08 03:18:12;;;;;;;;;;;;;;;3.20;74.33;96255.75;3607348;39;19935;-53
2021/05/08 03:20:39;;;;;;;;;;;;;;;3.15;75.00;96252.16;3596285;39;19981;-53
2021/05/08 03:23:07;;;;;;;;;;;;;;;3.21;76.20;96262.59;3589810;39;19942;-54
2021/05/08 03:25:34;;;;;;;;;;;;;;;3.25;76.34;96268.22;3595557;39;19943;-53
2021/05/08 03:28:02;;;;;;;;;;;;;;;3.29;76.74;96277.22;3598860;39;19944;-53
2021/05/08 03:30:32;;;;;;;;;;;;;;;3.31;76.48;96272.63;3601717;39;19942;-54
2021/05/08 03:33:03;;;;;;;;;;;;;;;3.39;75.39;96275.03;3595891;39;20793;-52
2021/05/08 03:35:30;;;;;;;;;;;;;;;3.46;74.59;96285.44;3590285;39;19954;-54
2021/05/08 03:37:57;;;;;;;;;;;;;;;3.50;74.70;96289.28;3603508;39;19971;-53
2021/05/08 03:40:24;;;;;;;;;;;;;;;3.52;75.19;96286.44;3602743;39;19943;-52
2021/05/08 03:42:52;;;;;;;;;;;;;;;3.53;74.62;96294.09;3609094;39;19953;-53
2021/05/08 03:45:19;;;;;;;;;;;;;;;3.55;74.97;96299.09;3592553;39;19944;-53
2021/05/08 03:47:46;;;;;;;;;;;;;;;3.58;74.70;96290.88;3603469;39;19943;-54
2021/05/08 03:50:13;;;;;;;;;;;;;;;3.67;72.55;96296.69;3609891;39;20333;-53
2021/05/08 03:52:41;;;;;;;;;;;;;;;3.75;71.13;96298.31;3596940;39;20227;-52
2021/05/08 03:55:08;;;;;;;;;;;;;;;3.76;72.09;96299.88;3607870;39;19939;-51
2021/05/08 03:57:39;;;;;;;;;;;;;;;3.77;71.88;96304.09;3590182;39;19948;-53
2021/05/08 04:00:06;;;;;;;;;;;;;;;3.82;71.43;96309.53;3601861;39;20506;-54
2021/05/08 04:02:39;;;;;;;;;;;;;;;3.92;70.84;96306.50;3596260;39;20207;-52
2021/05/08 04:05:06;;;;;;;;;;;;;;;3.98;71.08;96318.72;3600101;39;19959;-53
2021/05/08 04:07:33;;;;;;;;;;;;;;;4.04;72.66;96307.50;3600558;39;19935;-52
2021/05/08 04:10:00;;;;;;;;;;;;;;;4.09;70.16;96315.50;3599320;39;19950;-52
2021/05/08 04:12:27;;;;;;;;;;;;;;;4.13;68.37;96318.50;3590389;39;19944;-53
2021/05/08 04:14:54;;;;;;;;;;;;;;;4.21;67.53;96323.50;3595895;39;19939;-53
2021/05/08 04:17:21;;;;;;;;;;;;;;;4.27;67.19;96333.13;3593032;39;19939;-54
2021/05/08 04:19:50;;;;;;;;;;;;;;;4.30;67.86;96337.16;3602104;39;19941;-53
2021/05/08 04:22:16;;;;;;;;;;;;;;;4.28;67.72;96334.72;3604445;39;19947;-54
2021/05/08 04:24:43;;;;;;;;;;;;;;;4.32;68.11;96335.13;3595169;39;20252;-53
2021/05/08 04:27:10;;;;;;;;;;;;;;;4.34;69.00;96342.78;3605778;39;19948;-54
2021/05/08 04:29:41;;;;;;;;;;;;;;;4.41;69.17;96343.53;3602062;39;19940;-62
2021/05/08 04:32:08;;;;;;;;;;;;;;;4.46;68.56;96346.34;3595824;39;19952;-54
2021/05/08 04:34:35;;;;;;;;;;;;;;;4.50;65.42;96347.53;3609589;39;19947;-56
2021/05/08 04:37:04;;;;;;;;;;;;;;;4.57;63.72;96348.31;3593170;39;19936;-54
2021/05/08 04:39:32;;;;;;;;;;;;;;;4.64;64.28;96358.75;3592804;39;19975;-53
2021/05/08 04:41:59;;;;;;;;;;;;;;;4.70;64.00;96357.13;3600033;39;19969;-56
2021/05/08 04:44:26;;;;;;;;;;;;;;;4.73;64.79;96347.06;3611241;39;20192;-52
2021/05/08 04:46:53;;;;;;;;;;;;;;;4.75;64.99;96355.50;3596735;39;19936;-56
2021/05/08 04:49:21;;;;;;;;;;;;;;;4.83;65.37;96356.25;3587501;39;19939;-53
2021/05/08 04:51:48;;;;;;;;;;;;;;;4.89;65.91;96361.44;3598040;39;19973;-53
2021/05/08 04:54:15;;;;;;;;;;;;;;;4.91;65.33;96364.66;3594047;39;19940;-54
2021/05/08 04:56:42;;;;;;;;;;;;;;;5.00;66.58;96367.03;3602651;39;19947;-53
2021/05/08 04:59:10;;;;;;;;;;;;;;;5.14;65.67;96358.13;3593748;39;19942;-52
2021/05/08 05:01:37;;;;;;;;;;;;;;;5.17;66.59;96357.69;3605496;39;19950;-53
2021/05/08 05:04:05;;;;;;;;;;;;;;;5.27;65.77;96359.88;3595551;39;19950;-53
2021/05/08 05:06:32;;;;;;;;;;;;;;;5.34;64.62;96365.06;3598050;39;20729;-53
2021/05/08 05:09:00;;;;;;;;;;;;;;;5.44;65.96;96360.16;3602375;39;19952;-53
2021/05/08 05:11:28;;;;;;;;;;;;;;;5.52;65.10;96364.34;3591534;39;20316;-53
2021/05/08 05:13:54;;;;;;;;;;;;;;;5.59;63.51;96364.28;3594170;39;19936;-53
2021/05/08 05:16:21;;;;;;;;;;;;;;;5.63;62.70;96371.50;3607828;39;20263;-52
2021/05/08 05:18:48;;;;;;;;;;;;;;;5.66;62.98;96376.28;3590809;39;19948;-53
2021/05/08 05:21:15;;;;;;;;;;;;;;;5.77;62.40;96374.03;3605437;39;20244;-53
2021/05/08 05:23:42;;;;;;;;;;;;;;;5.85;60.64;96384.22;3604369;39;19944;-53
2021/05/08 05:26:09;;;;;;;;;;;;;;;5.92;60.26;96389.41;3605619;39;19943;-53
2021/05/08 05:28:36;;;;;;;;;;;;;;;5.96;58.94;96391.38;3588599;39;19935;-56
2021/05/08 05:31:03;;;;;;;;;;;;;;;6.04;60.00;96400.81;3584991;39;20334;-53
2021/05/08 05:33:31;;;;;;;;;;;;;;;6.11;59.88;96398.94;3596028;39;19950;-54
2021/05/08 05:35:58;;;;;;;;;;;;;;;6.22;60.57;96394.00;3604318;39;19944;-53
2021/05/08 05:38:25;;;;;;;;;;;;;;;6.39;60.52;96404.75;3607021;39;19942;-53
2021/05/08 05:40:53;;;;;;;;;;;;;;;6.61;59.96;96407.72;3604872;39;20485;-53
2021/05/08 05:43:20;;;;;;;;;;;;;;;6.84;60.71;96408.91;3592552;39;19944;-53
2021/05/08 05:45:47;;;;;;;;;;;;;;;7.07;57.99;96411.66;3600962;39;19935;-56
2021/05/08 05:48:14;;;;;;;;;;;;;;;7.32;56.03;96408.09;3596695;39;19939;-53
2021/05/08 05:50:43;;;;;;;;;;;;;;;7.33;55.72;96414.16;3581844;39;19947;-53
2021/05/08 05:53:15;;;;;;;;;;;;;;;7.22;54.16;96420.97;3596798;39;20193;-53
2021/05/08 05:55:42;;;;;;;;;;;;;;;7.16;53.63;96421.84;3608612;39;19943;-54
2021/05/08 05:58:10;;;;;;;;;;;;;;;7.17;54.25;96412.97;3604056;39;19947;-53
2021/05/08 06:00:37;;;;;;;;;;;;;;;7.17;52.34;96421.63;3596142;39;19958;-54
2021/05/08 06:03:04;;;;;;;;;;;;;;;7.07;53.20;96422.16;3608334;39;19940;-54
2021/05/08 06:05:31;;;;;;;;;;;;;;;7.04;54.05;96427.03;3603815;39;19948;-54
2021/05/08 06:07:58;;;;;;;;;;;;;;;7.04;53.39;96433.09;3606345;39;19947;-54
2021/05/08 06:10:25;;;;;;;;;;;;;;;7.10;54.69;96435.84;3586132;39;19949;-55
2021/05/08 06:12:52;;;;;;;;;;;;;;;7.27;53.45;96439.47;3585152;39;20411;-53
2021/05/08 06:15:19;;;;;;;;;;;;;;;7.32;53.19;96436.19;3589688;39;19943;-54
2021/05/08 06:17:48;;;;;;;;;;;;;;;7.46;52.70;96435.00;3599632;39;19935;-54
2021/05/08 06:20:15;;;;;;;;;;;;;;;7.62;50.81;96430.94;3592676;39;19936;-54
2021/05/08 06:22:43;;;;;;;;;;;;;;;7.77;50.69;96437.59;3605757;39;20202;-53
2021/05/08 06:25:10;;;;;;;;;;;;;;;7.85;51.95;96427.56;3601450;39;19954;-53
2021/05/08 06:27:39;;;;;;;;;;;;;;;7.98;50.52;96431.81;3593076;39;20427;-53
2021/05/08 06:30:08;;;;;;;;;;;;;;;8.11;50.89;96430.81;3594989;39;19947;-52
2021/05/08 06:32:35;;;;;;;;;;;;;;;8.26;49.17;96429.56;3598207;39;19954;-52
2021/05/08 06:35:03;;;;;;;;;;;;;;;8.32;46.68;96433.91;3601548;39;19935;-55
2021/05/08 06:37:30;;;;;;;;;;;;;;;8.19;46.80;96426.25;3591472;39;19940;-52
2021/05/08 06:39:58;;;;;;;;;;;;;;;8.26;47.66;96427.75;3597368;39;19954;-54
2021/05/08 06:42:25;;;;;;;;;;;;;;;8.34;47.16;96426.59;3605761;39;20529;-54
2021/05/08 06:44:52;;;;;;;;;;;;;;;8.43;47.45;96437.59;3590108;39;20301;-54
2021/05/08 06:47:20;;;;;;;;;;;;;;;8.49;46.94;96431.44;3603995;39;20035;-53
2021/05/08 06:49:48;;;;;;;;;;;;;;;8.67;46.64;96440.22;3606303;39;20289;-53
2021/05/08 06:52:15;;;;;;;;;;;;;;;8.74;45.31;96427.75;3586559;39;19942;-53
2021/05/08 06:54:42;;;;;;;;;;;;;;;8.74;45.00;96438.28;3607060;39;19935;-53
2021/05/08 06:57:09;;;;;;;;;;;;;;;8.65;44.92;96439.66;3607091;39;20565;-53
2021/05/08 06:59:36;;;;;;;;;;;;;;;8.56;45.46;96441.81;3603039;39;19944;-54
2021/05/08 07:02:04;;;;;;;;;;;;;;;8.31;46.95;96438.34;3597356;39;19973;-54
2021/05/08 07:04:32;;;;;;;;;;;;;;;8.18;46.90;96440.41;3595903;39;19936;-53
2021/05/08 07:06:59;;;;;;;;;;;;;;;8.19;45.97;96440.16;3590756;39;20277;-54
2021/05/08 07:09:26;;;;;;;;;;;;;;;8.23;46.38;96440.53;3597901;39;19935;-54
2021/05/08 07:11:53;;;;;;;;;;;;;;;8.19;46.50;96439.38;3596813;39;20285;-53
2021/05/08 07:14:20;;;;;;;;;;;;;;;8.12;47.04;96448.16;3595780;39;19962;-53
2021/05/08 07:16:53;;;;;;;;;;;;;;;8.18;46.64;96441.22;3594362;39;19946;-54
2021/05/08 07:19:20;;;;;;;;;;;;;;;8.30;45.24;96454.38;3593419;39;19935;-54
2021/05/08 07:21:48;;;;;;;;;;;;;;;8.37;45.75;96459.50;3597869;39;20292;-54
2021/05/08 07:24:19;;;;;;;;;;;;;;;8.39;44.82;96457.47;3594083;39;19947;-55
2021/05/08 07:26:46;;;;;;;;;;;;;;;8.41;45.73;96463.28;3592078;39;20522;-53
2021/05/08 07:29:14;;;;;;;;;;;;;;;8.49;44.81;96465.59;3596145;39;19936;-53
2021/05/08 07:31:41;;;;;;;;;;;;;;;8.60;44.88;96462.19;3596188;39;19956;-53
2021/05/08 07:34:09;;;;;;;;;;;;;;;8.72;44.61;96462.19;3600357;39;19935;-54
2021/05/08 07:36:36;;;;;;;;;;;;;;;8.67;44.49;96459.44;3600185;39;19965;-53
2021/05/08 07:39:04;;;;;;;;;;;;;;;8.84;44.10;96464.78;3594716;39;21628;-53
2021/05/08 07:41:34;;;;;;;;;;;;;;;9.02;44.55;96461.22;3594122;39;20165;-53
2021/05/08 07:44:02;;;;;;;;;;;;;;;9.11;45.26;96464.28;3601526;39;20047;-53
2021/05/08 07:46:32;;;;;;;;;;;;;;;9.20;44.57;96459.47;3592628;39;19944;-53
2021/05/08 07:48:59;;;;;;;;;;;;;;;9.35;44.41;96467.66;3599297;39;19949;-53
2021/05/08 07:51:26;;;;;;;;;;;;;;;9.46;42.87;96470.50;3593317;39;19950;-53
2021/05/08 07:53:53;;;;;;;;;;;;;;;9.51;42.33;96465.31;3595446;39;20239;-55
2021/05/08 07:56:22;;;;;;;;;;;;;;;9.63;42.11;96476.59;3594541;39;19948;-54
2021/05/08 07:58:49;;;;;;;;;;;;;;;9.63;41.81;96479.25;3595514;39;21935;-53
2021/05/08 08:01:16;;;;;;;;;;;;;;;9.50;41.04;96474.25;3596512;39;19948;-53
2021/05/08 08:03:43;;;;;;;;;;;;;;;9.57;41.57;96466.22;3599194;39;19959;-52
2021/05/08 08:06:10;;;;;;;;;;;;;;;9.60;42.04;96471.00;3596533;39;19943;-53
2021/05/08 08:08:37;;;;;;;;;;;;;;;9.58;42.81;96475.72;3599140;39;19935;-53
2021/05/08 08:11:04;;;;;;;;;;;;;;;9.57;41.71;96476.75;3598865;39;19935;-53
2021/05/08 08:13:31;;;;;;;;;;;;;;;9.61;40.56;96472.63;3607523;39;19935;-52
2021/05/08 08:15:58;;;;;;;;;;;;;;;9.76;40.77;96482.63;3609694;39;20060;-53
2021/05/08 08:18:27;;;;;;;;;;;;;;;9.81;40.26;96486.16;3581023;39;20289;-53
2021/05/08 08:20:54;;;;;;;;;;;;;;;9.83;40.41;96476.19;3609212;39;19935;-53
2021/05/08 08:23:21;;;;;;;;;;;;;;;9.93;40.44;96480.03;3591310;39;20321;-53
2021/05/08 08:25:49;;;;;;;;;;;;;;;10.23;40.17;96478.94;3603900;39;19935;-53
2021/05/08 08:28:17;;;;;;;;;;;;;;;10.49;39.37;96482.00;3607227;39;20023;-54
2021/05/08 08:30:44;;;;;;;;;;;;;;;10.46;39.33;96485.94;3606787;39;19944;-53
2021/05/08 08:33:11;;;;;;;;;;;;;;;10.56;39.01;96482.63;3598752;39;19936;-52
2021/05/08 08:35:38;;;;;;;;;;;;;;;10.54;37.57;96469.69;3609447;39;19931;-52
2021/05/08 08:38:06;;;;;;;;;;;;;;;10.60;37.51;96478.47;3609182;39;20030;-55
2021/05/08 08:40:33;;;;;;;;;;;;;;;10.57;37.52;96478.97;3598078;39;20462;-54
2021/05/08 08:43:00;;;;;;;;;;;;;;;10.64;38.26;96486.72;3596826;39;19936;-54
2021/05/08 08:45:32;;;;;;;;;;;;;;;10.85;38.16;96490.44;3608687;39;19943;-53
2021/05/08 08:48:02;;;;;;;;;;;;;;;10.73;36.20;96487.88;3608586;39;19947;-52
2021/05/08 08:50:35;;;;;;;;;;;;;;;10.60;36.69;96483.75;3595635;39;19939;-53
2021/05/08 08:53:03;;;;;;;;;;;;;;;10.61;37.33;96486.16;3596555;39;20259;-53
2021/05/08 08:55:31;;;;;;;;;;;;;;;10.65;36.90;96496.22;3608857;39;19936;-53
2021/05/08 08:57:59;;;;;;;;;;;;;;;10.74;37.91;96503.50;3612249;39;19935;-52
2021/05/08 09:00:26;;;;;;;;;;;;;;;10.66;36.69;96495.19;3609761;39;20278;-54
2021/05/08 09:02:53;;;;;;;;;;;;;;;10.53;36.41;96497.13;3610245;39;20235;-53
2021/05/08 09:05:23;;;;;;;;;;;;;;;10.58;36.91;96497.19;3610612;39;19954;-53
2021/05/08 09:07:51;;;;;;;;;;;;;;;10.49;36.44;96497.84;3611190;39;19943;-53
2021/05/08 09:10:28;;;;;;;;;;;;;;;10.80;35.46;96490.38;3607192;39;19971;-54
2021/05/08 09:12:56;;;;;;;;;;;;;;;11.15;36.11;96497.16;3612976;39;19946;-53
2021/05/08 09:15:31;;;;;;;;;;;;;;;11.53;34.00;96492.88;3599543;39;19943;-54
2021/05/08 09:17:59;;;;;;;;;;;;;;;11.49;35.06;96494.41;3604247;39;19936;-53
2021/05/08 09:20:42;;;;;;;;;;;;;;;11.20;34.01;96497.25;3610272;39;19948;-55
2021/05/08 09:23:23;;;;;;;;;;;;;;;11.03;34.78;96489.38;3610993;39;19949;-53
2021/05/08 09:26:09;;;;;;;;;;;;;;;10.94;35.96;96486.34;3608776;39;19942;-52
2021/05/08 09:28:38;;;;;;;;;;;;;;;11.04;34.62;96491.75;3613464;39;19953;-53
2021/05/08 09:31:06;;;;;;;;;;;;;;;10.88;35.33;96497.88;3606254;39;19943;-54
2021/05/08 09:33:33;;;;;;;;;;;;;;;10.92;35.36;96498.97;3588199;39;19940;-53
2021/05/08 09:36:00;;;;;;;;;;;;;;;11.03;35.80;96498.06;3590493;39;19947;-53
2021/05/08 09:38:38;;;;;;;;;;;;;;;11.23;36.28;96496.75;3596256;39;19950;-53
2021/05/08 09:41:06;;;;;;;;;;;;;;;11.26;35.50;96500.75;3602941;39;19939;-53
2021/05/08 09:43:34;;;;;;;;;;;;;;;11.57;34.23;96493.97;3595486;39;20217;-53
2021/05/08 09:46:01;;;;;;;;;;;;;;;11.85;34.58;96489.50;3600411;39;19947;-55
2021/05/08 09:48:33;;;;;;;;;;;;;;;12.09;35.39;96499.81;3600969;39;20236;-53
2021/05/08 09:51:22;;;;;;;;;;;;;;;12.41;33.79;96496.38;3600573;39;19943;-54
2021/05/08 09:53:54;;;;;;;;;;;;;;;12.65;32.29;96501.31;3590446;39;20215;-53
2021/05/08 09:56:34;;;;;;;;;;;;;;;12.90;32.26;96496.19;3595991;39;19954;-54
2021/05/08 09:59:20;;;;;;;;;;;;;;;12.89;31.97;96493.78;3584202;39;19969;-54
2021/05/08 10:02:10;;;;;;;;;;;;;;;12.56;31.29;96498.31;3601287;39;20393;-54
2021/05/08 10:04:51;;;;;;;;;;;;;;;12.67;32.03;96496.56;3598115;39;19936;-54
2021/05/08 10:07:22;;;;;;;;;;;;;;;12.92;31.77;96494.06;3601181;39;19946;-54
2021/05/08 10:09:57;;;;;;;;;;;;;;;12.90;31.47;96492.75;3585333;39;20052;-54
2021/05/08 10:12:26;;;;;;;;;;;;;;;13.16;32.25;96496.31;3610877;39;19941;-54
2021/05/08 10:14:54;;;;;;;;;;;;;;;13.17;31.93;96484.66;3603479;39;19944;-55
2021/05/08 10:17:22;;;;;;;;;;;;;;;13.28;32.08;96479.41;3610337;39;19950;-54
2021/05/08 10:19:55;;;;;;;;;;;;;;;13.32;33.56;96478.63;3597484;39;20269;-54
2021/05/08 10:22:23;;;;;;;;;;;;;;;13.49;31.53;96477.66;3605228;39;19935;-54
2021/05/08 10:24:50;;;;;;;;;;;;;;;13.56;29.61;96477.44;3601218;39;19950;-55
2021/05/08 10:27:17;;;;;;;;;;;;;;;13.51;29.11;96481.63;3605348;39;19945;-54
2021/05/08 10:29:51;;;;;;;;;;;;;;;13.45;28.04;96479.22;3592057;39;19936;-55
2021/05/08 10:32:19;;;;;;;;;;;;;;;13.35;30.01;96475.47;3597158;39;19952;-53
2021/05/08 10:34:50;;;;;;;;;;;;;;;13.48;29.21;96476.84;3596226;39;19945;-54
2021/05/08 10:37:18;;;;;;;;;;;;;;;13.31;30.77;96484.19;3602632;39;19969;-54
2021/05/08 10:39:46;;;;;;;;;;;;;;;13.02;30.81;96477.44;3604322;39;19947;-54
2021/05/08 10:42:28;;;;;;;;;;;;;;;13.17;30.00;96474.06;3605877;39;19973;-53
2021/05/08 10:44:56;;;;;;;;;;;;;;;13.37;29.73;96472.53;3598836;39;19963;-53
2021/05/08 10:47:22;;;;;;;;;;;;;;;13.43;30.23;96476.84;3599524;39;19935;-53
2021/05/08 10:50:09;;;;;;;;;;;;;;;13.36;30.92;96476.25;3602721;39;19947;-57
2021/05/08 10:52:55;;;;;;;;;;;;;;;13.26;31.07;96474.38;3591557;39;19947;-53
2021/05/08 10:55:22;;;;;;;;;;;;;;;12.65;30.78;96466.91;3606416;39;19947;-53
2021/05/08 10:58:08;;;;;;;;;;;;;;;12.45;31.49;96466.50;3599647;39;19944;-53
2021/05/08 11:00:45;;;;;;;;;;;;;;;12.55;31.18;96454.41;3606654;39;20208;-53
2021/05/08 11:03:12;;;;;;;;;;;;;;;13.08;31.65;96468.47;3593750;39;19935;-53
2021/05/08 11:06:00;;;;;;;;;;;;;;;13.18;29.28;96453.66;3606626;39;19932;-54
2021/05/08 11:08:27;;;;;;;;;;;;;;;12.98;31.63;96463.13;3610607;39;20480;-54
2021/05/08 11:10:55;;;;;;;;;;;;;;;13.05;29.49;96470.84;3594643;39;20479;-54
2021/05/08 11:13:24;;;;;;;;;;;;;;;12.87;30.50;96474.72;3592245;39;19940;-54
2021/05/08 11:15:51;;;;;;;;;;;;;;;12.57;30.31;96474.28;3594525;39;19950;-53
2021/05/08 11:21:24;;;;;;;;;;;;;;;12.37;30.24;96466.19;3609233;39;19939;-54
2021/05/08 11:23:57;;;;;;;;;;;;;;;12.51;29.21;96469.97;3608826;39;19947;-54
2021/05/08 11:26:25;;;;;;;;;;;;;;;12.75;31.03;96464.31;3611149;39;19948;-52
2021/05/08 11:28:58;;;;;;;;;;;;;;;12.67;30.35;96473.56;3608718;39;19935;-53
2021/05/08 11:31:30;;;;;;;;;;;;;;;12.49;30.75;96468.66;3604717;39;19973;-53
2021/05/08 11:34:04;;;;;;;;;;;;;;;12.52;30.38;96471.56;3599465;39;19939;-53
2021/05/08 11:36:31;;;;;;;;;;;;;;;12.90;28.57;96466.25;3574815;39;19936;-53
2021/05/08 11:39:11;;;;;;;;;;;;;;;13.13;29.72;96464.25;3602389;39;19947;-54
2021/05/08 11:41:39;;;;;;;;;;;;;;;13.23;28.78;96462.44;3584532;39;19949;-53
2021/05/08 11:44:07;;;;;;;;;;;;;;;13.47;29.55;96451.44;3604716;39;19948;-57
2021/05/08 11:46:35;;;;;;;;;;;;;;;13.60;29.16;96454.66;3589133;39;19936;-53
2021/05/08 11:49:02;;;;;;;;;;;;;;;13.20;29.17;96454.19;3602341;39;20432;-54
2021/05/08 11:51:29;;;;;;;;;;;;;;;13.37;29.63;96456.66;3604750;39;19947;-52
2021/05/08 11:54:06;;;;;;;;;;;;;;;13.62;29.35;96452.50;3604656;39;19997;-53
2021/05/08 11:56:34;;;;;;;;;;;;;;;13.86;29.12;96447.53;3602139;39;19939;-53
2021/05/08 11:59:02;;;;;;;;;;;;;;;13.96;29.17;96457.38;3595895;39;19940;-53
2021/05/08 12:01:30;;;;;;;;;;;;;;;14.17;27.93;96442.22;3597022;39;20323;-54
2021/05/08 12:04:05;;;;;;;;;;;;;;;14.34;27.72;96452.56;3593338;39;20585;-53
2021/05/08 12:06:33;;;;;;;;;;;;;;;13.99;28.67;96440.91;3591523;39;20196;-53
2021/05/08 12:09:10;;;;;;;;;;;;;;;14.26;28.68;96443.31;3593195;39;19994;-55
2021/05/08 12:11:37;;;;;;;;;;;;;;;14.33;27.82;96435.09;3592615;39;19949;-54
2021/05/08 12:14:14;;;;;;;;;;;;;;;14.45;27.29;96440.09;3587523;39;20163;-54
2021/05/08 12:16:42;;;;;;;;;;;;;;;14.48;28.16;96438.75;3589646;39;19962;-53
2021/05/08 12:19:09;;;;;;;;;;;;;;;14.50;26.97;96431.34;3581066;39;19944;-53
2021/05/08 12:21:36;;;;;;;;;;;;;;;14.61;27.42;96430.25;3585319;39;19948;-53
2021/05/08 12:24:04;;;;;;;;;;;;;;;14.50;28.77;96423.38;3588881;39;19954;-53
2021/05/08 12:26:31;;;;;;;;;;;;;;;14.57;28.63;96414.06;3593952;39;20349;-54
2021/05/08 12:28:58;;;;;;;;;;;;;;;14.83;29.13;96423.88;3598049;39;20407;-54
2021/05/08 12:31:26;;;;;;;;;;;;;;;14.78;27.62;96418.56;3595463;39;20074;-54
2021/05/08 12:33:55;;;;;;;;;;;;;;;14.52;26.84;96419.41;3597134;39;20479;-54
2021/05/08 12:36:23;;;;;;;;;;;;;;;14.65;26.79;96414.56;3590126;39;19942;-53
2021/05/08 12:38:51;;;;;;;;;;;;;;;14.52;26.83;96416.75;3590316;39;20194;-54
2021/05/08 12:41:29;;;;;;;;;;;;;;;14.35;26.56;96417.00;3593142;39;20303;-53
2021/05/08 12:44:05;;;;;;;;;;;;;;;14.23;26.66;96411.19;3592051;39;19944;-54
2021/05/08 12:46:51;;;;;;;;;;;;;;;14.05;27.24;96415.97;3589835;39;19943;-53
2021/05/08 12:49:20;;;;;;;;;;;;;;;13.85;26.53;96416.75;3592641;39;19955;-53
2021/05/08 12:51:47;;;;;;;;;;;;;;;13.58;28.53;96423.09;3599217;39;20146;-54
2021/05/08 12:54:18;;;;;;;;;;;;;;;13.23;29.26;96413.97;3590628;39;19944;-53
2021/05/08 12:56:45;;;;;;;;;;;;;;;13.01;29.03;96417.59;3596060;39;19948;-54
2021/05/08 12:59:22;;;;;;;;;;;;;;;12.72;29.42;96415.31;3589308;39;19944;-53
2021/05/08 13:01:50;;;;;;;;;;;;;;;12.58;30.03;96420.28;3591437;39;19939;-53
2021/05/08 13:04:18;;;;;;;;;;;;;;;12.71;30.67;96423.53;3591901;39;19943;-53
2021/05/08 13:06:45;;;;;;;;;;;;;;;12.58;29.88;96412.34;3590715;39;19949;-53